createdAt,value
2023-05-30T00:02:08.700Z,19.78
2023-05-30T00:07:09.849Z,19.66
2023-05-30T00:12:11.145Z,19.60
2023-05-30T00:17:12.338Z,19.54
2023-05-30T00:22:13.342Z,19.48
2023-05-30T00:27:14.636Z,19.42
2023-05-30T00:32:15.897Z,19.37
2023-05-30T00:37:16.834Z,19.31
2023-05-30T00:42:18.059Z,19.22
2023-05-30T00:47:19.792Z,19.15
2023-05-30T00:52:20.954Z,19.10
2023-05-30T00:57:21.981Z,19.04
2023-05-30T01:02:23.151Z,18.98
2023-05-30T01:07:24.188Z,18.94
2023-05-30T01:12:38.720Z,18.91
2023-05-30T01:17:46.156Z,18.86
2023-05-30T01:22:59.461Z,18.82
2023-05-30T01:28:08.812Z,18.74
2023-05-30T01:33:09.992Z,18.64
2023-05-30T01:38:11.234Z,18.59
2023-05-30T01:43:28.318Z,18.52
2023-05-30T01:48:49.099Z,18.46
2023-05-30T01:53:53.163Z,18.41
2023-05-30T01:58:54.178Z,18.34
2023-05-30T02:03:55.548Z,18.30
2023-05-30T02:08:56.703Z,18.25
2023-05-30T02:13:57.719Z,18.22
2023-05-30T02:18:58.760Z,18.16
2023-05-30T02:23:59.993Z,18.11
2023-05-30T02:29:01.158Z,18.06
2023-05-30T02:34:02.321Z,18.01
2023-05-30T02:39:07.168Z,17.94
2023-05-30T02:44:08.259Z,17.90
2023-05-30T02:49:09.498Z,17.82
2023-05-30T02:54:10.659Z,17.76
2023-05-30T02:59:11.918Z,17.72
2023-05-30T03:04:12.899Z,17.71
2023-05-30T03:09:14.298Z,17.71
2023-05-30T03:14:15.929Z,17.74
2023-05-30T03:19:17.288Z,17.75
2023-05-30T03:24:18.647Z,17.73
2023-05-30T03:29:19.804Z,17.77
2023-05-30T03:34:21.094Z,17.77
2023-05-30T03:39:22.124Z,17.76
2023-05-30T03:44:23.389Z,17.72
2023-05-30T03:49:24.681Z,17.74
2023-05-30T03:54:31.549Z,17.79
2023-05-30T03:59:32.710Z,17.84
2023-05-30T04:04:34.896Z,17.86
2023-05-30T04:09:36.037Z,17.85
2023-05-30T04:14:37.119Z,17.93
2023-05-30T04:19:38.124Z,17.95
2023-05-30T04:24:39.120Z,18.00
2023-05-30T04:29:40.248Z,18.15
2023-05-30T04:34:41.583Z,18.30
2023-05-30T04:39:42.722Z,18.40
2023-05-30T04:44:43.780Z,18.51
2023-05-30T04:49:44.873Z,18.66
2023-05-30T04:54:45.950Z,18.77
2023-05-30T04:59:46.960Z,18.92
2023-05-30T05:04:47.952Z,19.09
2023-05-30T05:09:48.952Z,19.32
2023-05-30T05:14:54.397Z,19.50
2023-05-30T05:19:55.700Z,19.71
2023-05-30T05:24:56.861Z,19.90
2023-05-30T05:29:57.918Z,20.06
2023-05-30T05:34:59.183Z,20.21
2023-05-30T05:40:00.358Z,20.37
2023-05-30T05:45:01.414Z,20.57
2023-05-30T05:50:02.587Z,20.77
2023-05-30T05:55:03.830Z,21.03
2023-05-30T06:00:05.705Z,21.25
2023-05-30T06:05:07.810Z,21.48
2023-05-30T06:10:09.875Z,21.72
2023-05-30T06:15:11.164Z,21.92
2023-05-30T06:20:12.208Z,22.17
2023-05-30T06:25:13.228Z,22.43
2023-05-30T06:30:14.726Z,22.61
2023-05-30T06:35:16.808Z,22.78
2023-05-30T06:40:18.298Z,22.97
2023-05-30T06:45:20.849Z,23.15
2023-05-30T06:50:22.342Z,23.38
2023-05-30T06:55:25.260Z,23.60
2023-05-30T07:00:26.756Z,23.86
2023-05-30T07:05:29.127Z,24.09
2023-05-30T07:10:30.380Z,24.28
2023-05-30T07:15:31.627Z,24.53
2023-05-30T07:20:33.084Z,24.73
2023-05-30T07:25:34.537Z,24.87
2023-05-30T07:30:35.593Z,24.82
2023-05-30T07:35:36.619Z,24.79
2023-05-30T07:40:38.254Z,24.95
2023-05-30T07:45:41.900Z,25.21
2023-05-30T07:50:44.673Z,25.48
2023-05-30T07:55:46.045Z,25.83
2023-05-30T08:00:47.195Z,26.10
2023-05-30T08:05:48.390Z,26.20
2023-05-30T08:10:49.632Z,26.36
2023-05-30T08:15:50.740Z,26.52
2023-05-30T08:20:51.833Z,26.77
2023-05-30T08:25:53.216Z,26.88
2023-05-30T08:30:54.538Z,26.85
2023-05-30T08:35:55.639Z,27.09
2023-05-30T08:40:56.989Z,27.32
2023-05-30T08:45:58.473Z,27.44
2023-05-30T08:51:00.129Z,27.69
2023-05-30T08:56:08.595Z,27.96
2023-05-30T09:01:10.932Z,28.15
2023-05-30T09:06:14.997Z,28.32
2023-05-30T09:11:16.267Z,28.56
2023-05-30T09:16:17.367Z,28.87
2023-05-30T09:21:18.485Z,28.64
2023-05-30T09:26:19.761Z,28.00
2023-05-30T09:31:20.941Z,27.76
2023-05-30T09:36:23.199Z,28.09
2023-05-30T09:41:25.239Z,28.31
2023-05-30T09:46:30.412Z,28.60
2023-05-30T09:51:31.802Z,28.99
2023-05-30T09:56:39.743Z,29.25
2023-05-30T10:01:47.778Z,29.52
2023-05-30T10:06:50.458Z,29.83
2023-05-30T10:11:51.935Z,29.91
2023-05-30T10:16:55.575Z,29.82
2023-05-30T10:27:03.536Z,30.41
2023-05-30T10:32:05.611Z,30.63
2023-05-30T10:37:06.930Z,30.86
2023-05-30T10:42:15.430Z,30.98
2023-05-30T10:47:41.369Z,31.18
2023-05-30T10:52:43.052Z,31.60
2023-05-30T10:57:44.163Z,31.76
2023-05-30T11:02:50.241Z,31.75
2023-05-30T11:07:51.375Z,31.45
2023-05-30T11:12:52.438Z,31.07
2023-05-30T11:17:53.713Z,31.34
2023-05-30T11:23:04.403Z,31.82
2023-05-30T11:28:05.682Z,31.81
2023-05-30T11:33:10.809Z,32.11
2023-05-30T11:38:17.500Z,32.11
2023-05-30T11:43:18.916Z,31.77
2023-05-30T11:48:20.199Z,31.81
2023-05-30T11:53:21.529Z,32.43
2023-05-30T11:58:22.863Z,33.13
2023-05-30T12:03:24.087Z,33.65
2023-05-30T12:08:25.297Z,33.87
2023-05-30T12:13:26.655Z,34.17
2023-05-30T12:18:27.905Z,34.83
2023-05-30T12:23:29.687Z,34.82
2023-05-30T12:28:33.122Z,35.11
2023-05-30T12:33:34.374Z,34.60
2023-05-30T12:38:35.636Z,34.83
2023-05-30T12:43:37.012Z,34.81
2023-05-30T12:48:38.283Z,34.26
2023-05-30T12:53:39.425Z,34.21
2023-05-30T12:58:41.006Z,34.87
2023-05-30T13:03:42.149Z,34.34
2023-05-30T13:08:43.524Z,34.03
2023-05-30T13:13:44.897Z,33.58
2023-05-30T13:18:46.154Z,33.40
2023-05-30T13:23:47.153Z,33.53
2023-05-30T13:28:48.372Z,32.99
2023-05-30T13:33:49.435Z,32.31
2023-05-30T13:38:50.696Z,31.71
2023-05-30T13:43:52.069Z,31.21
2023-05-30T13:48:53.433Z,30.86
2023-05-30T13:54:01.375Z,30.54
2023-05-30T13:59:04.053Z,30.39
2023-05-30T14:04:05.210Z,30.33
2023-05-30T14:09:06.372Z,30.09
2023-05-30T14:14:07.351Z,29.91
2023-05-30T14:19:09.136Z,29.75
2023-05-30T14:24:10.082Z,29.53
2023-05-30T14:29:11.378Z,29.34
2023-05-30T14:34:12.489Z,29.15
2023-05-30T14:39:13.616Z,29.01
2023-05-30T14:49:21.442Z,28.70
2023-05-30T14:54:22.997Z,28.49
2023-05-30T14:59:25.020Z,28.40
2023-05-30T15:04:27.009Z,28.33
2023-05-30T15:09:28.293Z,28.16
2023-05-30T15:14:31.805Z,28.05
2023-05-30T15:19:32.877Z,27.97
2023-05-30T15:24:34.039Z,27.92
2023-05-30T15:29:37.624Z,27.87
2023-05-30T15:34:38.932Z,27.81
2023-05-30T15:39:40.092Z,27.69
2023-05-30T15:44:41.116Z,27.58
2023-05-30T15:49:42.210Z,27.56
2023-05-30T15:54:43.470Z,27.50
2023-05-30T15:59:44.550Z,27.46
2023-05-30T16:04:45.811Z,27.33
2023-05-30T16:09:47.156Z,27.27
2023-05-30T16:14:48.814Z,27.30
2023-05-30T16:19:49.908Z,27.26
2023-05-30T16:24:50.969Z,27.22
2023-05-30T16:29:55.458Z,27.18
2023-05-30T16:34:56.748Z,27.11
2023-05-30T16:39:57.714Z,27.06
2023-05-30T16:44:58.699Z,26.97
2023-05-30T16:49:59.819Z,26.89
2023-05-30T16:55:01.694Z,26.84
2023-05-30T17:00:03.425Z,26.78
2023-05-30T17:05:05.150Z,26.69
2023-05-30T17:10:07.256Z,26.57
2023-05-30T17:15:08.904Z,26.45
2023-05-30T17:20:12.018Z,26.32
2023-05-30T17:25:14.520Z,26.19
2023-05-30T17:30:16.298Z,26.08
2023-05-30T17:35:17.541Z,25.97
2023-05-30T17:40:18.813Z,25.87
2023-05-30T17:45:19.891Z,25.78
2023-05-30T17:50:25.260Z,25.71
2023-05-30T17:55:26.907Z,25.62
2023-05-30T18:00:28.792Z,25.53
2023-05-30T18:05:31.338Z,25.40
2023-05-30T18:10:33.323Z,25.25
2023-05-30T18:15:34.343Z,25.12
2023-05-30T18:20:39.873Z,25.04
2023-05-30T18:25:41.336Z,24.98
2023-05-30T18:30:42.400Z,24.95
2023-05-30T18:35:43.770Z,24.94
2023-05-30T18:40:44.893Z,24.91
2023-05-30T18:45:45.934Z,24.85
2023-05-30T18:50:47.051Z,24.79
2023-05-30T18:55:48.332Z,24.73
2023-05-30T19:00:49.785Z,24.68
2023-05-30T19:05:52.377Z,24.62
2023-05-30T19:10:53.540Z,24.55
2023-05-30T19:15:54.568Z,24.47
2023-05-30T19:20:55.874Z,24.38
2023-05-30T19:25:57.143Z,24.30
2023-05-30T19:30:58.395Z,24.24
2023-05-30T19:35:59.567Z,24.20
2023-05-30T19:41:00.888Z,24.17
2023-05-30T19:46:03.101Z,24.15
2023-05-30T19:51:04.783Z,24.13
2023-05-30T19:56:05.910Z,24.11
2023-05-30T20:01:07.250Z,24.07
2023-05-30T20:06:08.572Z,24.04
2023-05-30T20:11:09.685Z,24.01
2023-05-30T20:16:10.983Z,23.98
2023-05-30T20:21:13.489Z,23.94
2023-05-30T20:26:14.688Z,23.90
2023-05-30T20:31:16.052Z,23.85
2023-05-30T20:36:17.546Z,23.80
2023-05-30T20:41:18.821Z,23.76
2023-05-30T20:46:20.245Z,23.72
2023-05-30T20:51:21.529Z,23.66
2023-05-30T20:56:22.744Z,23.59
2023-05-30T21:01:26.686Z,23.53
2023-05-30T21:06:29.774Z,23.46
2023-05-30T21:11:31.140Z,23.39
2023-05-30T21:16:33.060Z,23.33
2023-05-30T21:21:34.276Z,23.27
2023-05-30T21:26:35.671Z,23.20
2023-05-30T21:31:36.681Z,23.12
2023-05-30T21:36:39.164Z,23.02
2023-05-30T21:41:47.429Z,22.92
2023-05-30T21:46:48.840Z,22.83
2023-05-30T21:51:49.902Z,22.79
2023-05-30T21:56:51.018Z,22.76
2023-05-30T22:01:52.194Z,22.71
2023-05-30T22:06:56.107Z,22.66
2023-05-30T22:11:57.271Z,22.60
2023-05-30T22:16:58.426Z,22.52
2023-05-30T22:22:03.461Z,22.46
2023-05-30T22:27:05.667Z,22.41
2023-05-30T22:32:07.266Z,22.37
2023-05-30T22:37:08.267Z,22.33
2023-05-30T22:42:09.790Z,22.29
2023-05-30T22:47:11.648Z,22.25
2023-05-30T22:52:13.836Z,22.17
2023-05-30T22:57:14.996Z,22.06
2023-05-30T23:02:18.587Z,21.95
2023-05-30T23:07:19.875Z,21.83
2023-05-30T23:12:21.749Z,21.70
2023-05-30T23:17:23.050Z,21.62
2023-05-30T23:22:24.284Z,21.53
2023-05-30T23:27:32.520Z,21.43
2023-05-30T23:32:33.666Z,21.33
2023-05-30T23:37:35.763Z,21.23
2023-05-30T23:42:36.926Z,21.13
2023-05-30T23:47:37.848Z,21.03
2023-05-30T23:52:38.856Z,20.92
2023-05-30T23:57:39.970Z,20.83
